createdAt,value
2018-08-19T00:01:30.719Z,19.10
2018-08-19T00:03:59.168Z,19.10
2018-08-19T00:06:27.610Z,19.10
2018-08-19T00:08:59.384Z,19.00
2018-08-19T00:11:27.909Z,19.00
2018-08-19T00:13:56.388Z,19.00
2018-08-19T00:16:24.896Z,18.90
2018-08-19T00:18:53.473Z,18.90
2018-08-19T00:21:21.849Z,18.90
2018-08-19T00:23:50.339Z,18.90
2018-08-19T00:26:18.839Z,18.80
2018-08-19T00:28:47.235Z,18.80
2018-08-19T00:31:15.721Z,18.80
2018-08-19T00:33:44.114Z,18.70
2018-08-19T00:36:25.969Z,18.70
2018-08-19T00:38:58.065Z,18.60
2018-08-19T00:41:26.632Z,18.60
2018-08-19T00:43:55.036Z,18.70
2018-08-19T00:46:28.364Z,18.80
2018-08-19T00:48:57.219Z,18.80
2018-08-19T00:51:25.786Z,18.80
2018-08-19T00:53:54.280Z,18.70
2018-08-19T00:56:22.787Z,18.60
2018-08-19T00:58:51.236Z,18.40
2018-08-19T01:01:30.688Z,18.20
2018-08-19T01:03:59.709Z,18.00
2018-08-19T01:06:28.261Z,17.80
2018-08-19T01:08:56.713Z,17.70
2018-08-19T01:11:36.157Z,17.80
2018-08-19T01:14:08.408Z,17.90
2018-08-19T01:16:37.039Z,18.00
2018-08-19T01:19:05.529Z,18.00
2018-08-19T01:21:34.127Z,18.00
2018-08-19T01:24:04.865Z,18.00
2018-08-19T01:26:34.423Z,17.80
2018-08-19T01:29:02.956Z,17.60
2018-08-19T01:31:31.401Z,17.40
2018-08-19T01:33:59.900Z,17.30
2018-08-19T01:36:29.748Z,17.20
2018-08-19T01:38:58.288Z,17.20
2018-08-19T01:41:26.720Z,17.20
2018-08-19T01:44:26.225Z,17.20
2018-08-19T01:46:54.615Z,17.30
2018-08-19T01:49:23.174Z,17.30
2018-08-19T01:51:51.612Z,17.30
2018-08-19T01:54:22.976Z,17.30
2018-08-19T01:56:58.167Z,17.30
2018-08-19T01:59:32.800Z,17.30
2018-08-19T02:02:04.895Z,17.30
2018-08-19T02:04:35.208Z,17.30
2018-08-19T02:07:03.812Z,17.30
2018-08-19T02:09:32.350Z,17.30
2018-08-19T02:12:01.005Z,17.30
2018-08-19T02:14:29.506Z,17.40
2018-08-19T02:16:58.114Z,17.40
2018-08-19T02:19:26.542Z,17.40
2018-08-19T02:21:55.040Z,17.40
2018-08-19T02:24:23.566Z,17.40
2018-08-19T02:26:51.994Z,17.30
2018-08-19T02:29:36.872Z,17.30
2018-08-19T02:32:06.798Z,17.20
2018-08-19T02:34:40.692Z,17.10
2018-08-19T02:37:18.638Z,17.00
2018-08-19T02:39:49.386Z,16.90
2018-08-19T02:42:25.888Z,16.90
2018-08-19T02:44:57.349Z,16.90
2018-08-19T02:47:25.793Z,16.80
2018-08-19T02:49:54.305Z,16.80
2018-08-19T02:52:33.368Z,16.80
2018-08-19T02:55:04.177Z,16.70
2018-08-19T02:57:33.269Z,16.60
2018-08-19T03:00:02.628Z,16.50
2018-08-19T03:02:33.060Z,16.50
2018-08-19T03:05:03.796Z,16.50
2018-08-19T03:07:32.669Z,16.40
2018-08-19T03:10:05.304Z,16.40
2018-08-19T03:12:33.866Z,16.40
2018-08-19T03:15:02.287Z,16.30
2018-08-19T03:17:31.544Z,16.30
2018-08-19T03:20:00.597Z,16.20
2018-08-19T03:22:29.911Z,16.20
2018-08-19T03:25:01.316Z,16.20
2018-08-19T03:27:29.897Z,16.10
2018-08-19T03:29:59.681Z,16.10
2018-08-19T03:32:28.111Z,16.00
2018-08-19T03:35:07.230Z,15.90
2018-08-19T03:37:36.889Z,15.90
2018-08-19T03:40:06.012Z,15.90
2018-08-19T03:42:35.575Z,15.90
2018-08-19T03:45:09.213Z,15.90
2018-08-19T03:47:37.655Z,15.90
2018-08-19T03:50:11.419Z,15.90
2018-08-19T03:52:42.102Z,15.90
2018-08-19T03:55:14.792Z,15.90
2018-08-19T03:57:43.236Z,15.80
2018-08-19T04:00:14.119Z,15.80
2018-08-19T04:02:42.601Z,15.70
2018-08-19T04:05:11.045Z,15.70
2018-08-19T04:07:39.454Z,15.70
2018-08-19T04:10:07.964Z,15.70
2018-08-19T04:12:36.416Z,15.70
2018-08-19T04:15:07.828Z,15.70
2018-08-19T04:17:36.288Z,15.70
2018-08-19T04:20:05.797Z,15.70
2018-08-19T04:22:34.236Z,15.70
2018-08-19T04:25:03.205Z,15.70
2018-08-19T04:27:31.580Z,15.70
2018-08-19T04:30:00.028Z,15.70
2018-08-19T04:32:30.439Z,15.70
2018-08-19T04:34:59.506Z,15.70
2018-08-19T04:37:28.395Z,15.80
2018-08-19T04:39:57.924Z,15.80
2018-08-19T04:42:26.473Z,15.70
2018-08-19T04:44:54.880Z,15.70
2018-08-19T04:47:30.132Z,15.70
2018-08-19T04:49:58.528Z,15.70
2018-08-19T04:52:27.600Z,15.70
2018-08-19T04:54:56.755Z,15.60
2018-08-19T04:57:25.196Z,15.60
2018-08-19T04:59:53.652Z,15.60
2018-08-19T05:02:22.229Z,15.60
2018-08-19T05:04:50.462Z,15.50
2018-08-19T05:07:18.867Z,15.50
2018-08-19T05:09:48.037Z,15.60
2018-08-19T05:12:16.435Z,15.60
2018-08-19T05:14:44.842Z,15.60
2018-08-19T05:17:14.066Z,15.60
2018-08-19T05:19:42.470Z,15.60
2018-08-19T05:22:13.810Z,15.70
2018-08-19T05:24:43.182Z,15.70
2018-08-19T05:27:11.580Z,15.80
2018-08-19T05:29:39.982Z,15.90
2018-08-19T05:32:12.971Z,16.00
2018-08-19T05:34:42.060Z,16.10
2018-08-19T05:37:11.082Z,16.20
2018-08-19T05:39:44.667Z,16.40
2018-08-19T05:42:13.784Z,16.50
2018-08-19T05:44:42.586Z,16.60
2018-08-19T05:47:12.473Z,16.70
2018-08-19T05:49:42.737Z,16.70
2018-08-19T05:52:26.430Z,16.80
2018-08-19T05:55:00.267Z,16.90
2018-08-19T05:57:34.272Z,16.90
2018-08-19T06:00:07.969Z,17.00
2018-08-19T06:02:42.588Z,17.10
2018-08-19T06:05:11.487Z,17.20
2018-08-19T06:07:40.021Z,17.20
2018-08-19T06:10:08.520Z,17.20
2018-08-19T06:12:36.957Z,17.20
2018-08-19T06:15:05.739Z,17.20
2018-08-19T06:17:34.223Z,17.30
2018-08-19T06:20:02.694Z,17.40
2018-08-19T06:22:36.345Z,17.50
2018-08-19T06:25:04.908Z,17.70
2018-08-19T06:27:38.591Z,17.80
2018-08-19T06:30:07.062Z,18.00
2018-08-19T06:32:35.500Z,18.10
2018-08-19T06:35:04.150Z,18.20
2018-08-19T06:37:32.472Z,18.30
2018-08-19T06:40:00.895Z,18.40
2018-08-19T06:42:29.356Z,18.50
2018-08-19T06:44:57.817Z,18.60
2018-08-19T06:47:27.954Z,18.80
2018-08-19T06:49:58.600Z,18.90
2018-08-19T06:52:27.484Z,19.10
2018-08-19T06:55:01.060Z,19.20
2018-08-19T06:57:29.604Z,19.30
2018-08-19T06:59:58.115Z,19.40
2018-08-19T07:02:26.578Z,19.50
2018-08-19T07:04:55.395Z,19.60
2018-08-19T07:07:24.020Z,19.60
2018-08-19T07:09:53.231Z,19.60
2018-08-19T07:12:23.560Z,19.50
2018-08-19T07:14:53.320Z,19.40
2018-08-19T07:17:23.155Z,19.50
2018-08-19T07:19:52.116Z,19.60
2018-08-19T07:22:21.550Z,19.80
2018-08-19T07:24:55.151Z,19.90
2018-08-19T07:27:23.657Z,20.00
2018-08-19T07:29:53.445Z,20.10
2018-08-19T07:32:22.257Z,20.20
2018-08-19T07:34:50.876Z,20.30
2018-08-19T07:37:19.680Z,20.30
2018-08-19T07:39:53.385Z,20.40
2018-08-19T07:42:21.974Z,20.50
2018-08-19T07:44:51.807Z,20.60
2018-08-19T07:47:21.214Z,20.70
2018-08-19T07:49:50.376Z,20.80
2018-08-19T07:52:18.811Z,20.80
2018-08-19T07:54:48.447Z,20.90
2018-08-19T07:57:32.884Z,21.10
2018-08-19T08:00:01.274Z,21.20
2018-08-19T08:02:31.598Z,21.40
2018-08-19T08:05:00.748Z,21.50
2018-08-19T08:07:31.808Z,21.70
2018-08-19T08:10:00.226Z,21.90
2018-08-19T08:12:28.669Z,22.00
2018-08-19T08:14:57.099Z,22.00
2018-08-19T08:17:26.840Z,22.00
2018-08-19T08:20:02.640Z,22.10
2018-08-19T08:22:31.852Z,22.20
2018-08-19T08:25:00.444Z,22.30
2018-08-19T08:27:29.864Z,22.40
2018-08-19T08:29:58.377Z,22.40
2018-08-19T08:32:26.839Z,22.50
2018-08-19T08:34:55.361Z,22.70
2018-08-19T08:37:23.864Z,22.80
2018-08-19T08:40:00.655Z,23.00
2018-08-19T08:42:33.556Z,23.20
2018-08-19T08:45:02.106Z,23.30
2018-08-19T08:47:31.657Z,23.40
2018-08-19T08:50:00.083Z,23.70
2018-08-19T08:52:28.524Z,23.90
2018-08-19T08:55:00.684Z,24.10
2018-08-19T08:57:29.198Z,24.20
2018-08-19T08:59:58.802Z,24.30
2018-08-19T09:02:27.902Z,24.40
2018-08-19T09:04:56.317Z,24.40
2018-08-19T09:07:26.921Z,24.60
2018-08-19T09:09:55.655Z,24.70
2018-08-19T09:12:35.336Z,24.80
2018-08-19T09:15:03.816Z,24.80
2018-08-19T09:17:32.254Z,24.80
2018-08-19T09:20:02.045Z,24.80
2018-08-19T09:22:33.373Z,25.00
2018-08-19T09:25:04.560Z,25.20
2018-08-19T09:27:35.774Z,25.40
2018-08-19T09:30:05.640Z,25.60
2018-08-19T09:35:46.077Z,26.00
2018-08-19T10:13:27.210Z,26.20
2018-08-19T10:15:56.586Z,27.80
2018-08-19T10:18:26.573Z,27.70
2018-08-19T10:20:56.694Z,27.80
2018-08-19T10:23:26.294Z,27.80
2018-08-19T10:25:56.590Z,28.00
2018-08-19T10:28:26.234Z,28.00
2018-08-19T10:30:58.546Z,28.00
2018-08-19T10:33:28.628Z,28.00
2018-08-19T10:35:58.337Z,27.90
2018-08-19T10:38:26.756Z,28.00
2018-08-19T10:41:11.599Z,28.10
2018-08-19T10:43:40.519Z,28.30
2018-08-19T10:46:08.918Z,28.60
2018-08-19T10:48:37.310Z,28.70
2018-08-19T10:51:07.332Z,28.80
2018-08-19T10:53:40.625Z,28.90
2018-08-19T10:56:09.560Z,29.00
2018-08-19T10:58:42.210Z,29.20
2018-08-19T11:01:11.112Z,29.30
2018-08-19T11:03:41.319Z,29.30
2018-08-19T11:06:10.648Z,29.40
2018-08-19T11:08:43.638Z,29.50
2018-08-19T11:11:13.490Z,29.50
2018-08-19T11:13:43.637Z,29.70
2018-08-19T11:16:13.817Z,29.70
2018-08-19T11:18:46.951Z,29.70
2018-08-19T11:21:26.176Z,29.80
2018-08-19T11:23:55.121Z,29.90
2018-08-19T11:26:23.643Z,30.20
2018-08-19T11:28:54.623Z,30.40
2018-08-19T11:31:31.409Z,30.30
2018-08-19T11:34:03.591Z,30.40
2018-08-19T11:36:39.688Z,30.50
2018-08-19T11:39:16.661Z,30.70
2018-08-19T11:41:48.337Z,30.90
2018-08-19T11:44:21.430Z,31.10
2018-08-19T11:46:50.760Z,31.30
2018-08-19T11:49:19.861Z,31.40
2018-08-19T11:52:05.250Z,31.50
2018-08-19T11:54:34.949Z,31.30
2018-08-19T11:57:10.478Z,32.20
2018-08-19T11:59:42.376Z,34.60
2018-08-19T12:02:17.026Z,37.10
2018-08-19T12:04:45.994Z,38.80
2018-08-19T12:07:16.487Z,39.70
2018-08-19T12:09:52.583Z,40.70
2018-08-19T12:12:32.273Z,41.50
2018-08-19T12:15:01.333Z,41.70
2018-08-19T12:17:29.730Z,41.90
2018-08-19T12:19:58.545Z,42.00
2018-08-19T12:22:28.480Z,42.80
2018-08-19T12:24:57.561Z,43.30
2018-08-19T12:27:26.749Z,44.00
2018-08-19T12:30:03.486Z,44.50
2018-08-19T12:32:32.298Z,44.50
2018-08-19T12:35:01.616Z,44.40
2018-08-19T12:37:33.675Z,44.30
2018-08-19T12:40:03.585Z,44.40
2018-08-19T12:42:45.674Z,44.80
2018-08-19T12:45:16.222Z,44.80
2018-08-19T12:47:47.069Z,44.30
2018-08-19T12:50:16.637Z,42.20
2018-08-19T12:52:46.712Z,41.40
2018-08-19T12:55:17.321Z,41.40
2018-08-19T12:57:54.215Z,41.40
2018-08-19T13:00:29.152Z,40.40
2018-08-19T13:30:44.812Z,39.90
2018-08-19T13:33:15.047Z,39.00
2018-08-19T13:35:45.190Z,41.00
2018-08-19T13:38:23.991Z,42.40
2018-08-19T13:40:53.873Z,42.50
2018-08-19T13:43:31.107Z,42.70
2018-08-19T13:46:01.092Z,42.80
2018-08-19T13:48:30.924Z,43.30
2018-08-19T17:58:46.685Z,32.10
2018-08-19T18:01:17.185Z,28.50
2018-08-19T18:03:50.282Z,28.40
2018-08-19T18:06:20.705Z,28.30
2018-08-19T18:08:52.536Z,28.30
2018-08-19T18:11:25.989Z,28.20
2018-08-19T18:13:55.849Z,28.10
2018-08-19T18:16:26.040Z,28.00
2018-08-19T18:18:55.395Z,27.80
2018-08-19T18:21:28.872Z,27.70
2018-08-19T18:24:00.469Z,27.60
2018-08-19T18:26:30.710Z,27.50
2018-08-19T18:29:00.386Z,27.40
2018-08-19T18:31:30.808Z,27.30
2018-08-19T18:34:04.063Z,27.20
2018-08-19T18:36:35.727Z,27.10
2018-08-19T18:39:13.553Z,27.00
2018-08-19T18:41:44.250Z,26.90
2018-08-19T18:44:14.768Z,26.70
2018-08-19T18:46:44.998Z,26.50
2018-08-19T18:49:14.504Z,26.30
2018-08-19T18:51:53.164Z,26.10
2018-08-19T18:54:31.021Z,26.00
2018-08-19T18:57:10.620Z,25.90
2018-08-19T18:59:46.955Z,25.80
2018-08-19T19:02:20.599Z,25.60
2018-08-19T19:04:51.861Z,25.50
2018-08-19T19:07:23.795Z,25.40
2018-08-19T19:09:56.824Z,25.20
2018-08-19T19:12:30.664Z,25.10
2018-08-19T19:15:03.019Z,25.00
2018-08-19T19:17:35.078Z,24.90
2018-08-19T19:20:05.590Z,24.90
2018-08-19T19:22:36.516Z,24.80
2018-08-19T19:25:18.015Z,24.80
2018-08-19T19:27:48.326Z,24.70
2018-08-19T19:30:19.305Z,24.60
2018-08-19T19:32:49.897Z,24.60
2018-08-19T19:38:24.293Z,24.50
2018-08-19T19:46:30.876Z,24.40
2018-08-19T19:49:14.035Z,24.40
2018-08-19T19:51:55.120Z,24.40
2018-08-19T19:54:52.963Z,24.40
2018-08-19T19:57:30.139Z,24.30
2018-08-19T20:00:00.398Z,24.20
2018-08-19T20:02:36.834Z,24.20
2018-08-19T20:05:15.927Z,24.10
2018-08-19T20:07:47.876Z,24.10
2018-08-19T20:10:21.386Z,24.10
2018-08-19T20:12:55.221Z,24.10
2018-08-19T20:15:26.944Z,24.10
2018-08-19T20:17:57.727Z,24.00
2018-08-19T20:20:28.828Z,24.00
2018-08-19T20:23:01.463Z,24.00
2018-08-19T20:25:38.297Z,24.00
2018-08-19T20:28:10.984Z,23.90
2018-08-19T20:30:42.800Z,23.80
2018-08-19T20:33:23.069Z,23.70
2018-08-19T20:35:54.928Z,23.70
2018-08-19T20:38:25.014Z,23.60
2018-08-19T20:40:57.647Z,23.60
2018-08-19T20:43:30.044Z,23.50
2018-08-19T20:46:00.615Z,23.50
2018-08-19T20:48:29.128Z,23.50
2018-08-19T20:50:57.749Z,23.40
2018-08-19T20:53:26.177Z,23.40
2018-08-19T20:55:54.596Z,23.30
2018-08-19T20:58:23.983Z,23.30
2018-08-19T21:00:52.461Z,23.30
2018-08-19T21:03:20.917Z,23.40
2018-08-19T21:05:49.450Z,23.50
2018-08-19T21:08:18.819Z,23.50
2018-08-19T21:10:48.440Z,23.50
2018-08-19T21:13:18.580Z,23.50
2018-08-19T21:15:49.763Z,23.50
2018-08-19T21:18:19.642Z,23.40
2018-08-19T21:20:48.051Z,23.50
2018-08-19T21:23:18.582Z,23.40
2018-08-19T21:25:52.702Z,23.40
2018-08-19T21:28:21.972Z,23.30
2018-08-19T21:30:51.845Z,23.30
2018-08-19T21:33:21.064Z,23.20
2018-08-19T21:35:54.361Z,23.20
2018-08-19T21:38:22.833Z,23.10
2018-08-19T21:40:55.304Z,23.10
2018-08-19T21:43:26.801Z,23.00
2018-08-19T21:45:55.203Z,22.90
2018-08-19T21:48:23.582Z,22.80
2018-08-19T21:50:52.135Z,22.80
2018-08-19T21:53:20.715Z,22.70
2018-08-19T21:55:50.353Z,22.70
2018-08-19T21:58:18.867Z,22.60
2018-08-19T22:00:52.935Z,22.50
2018-08-19T22:03:26.753Z,22.50
2018-08-19T22:05:56.205Z,22.40
2018-08-19T22:08:24.823Z,22.30
2018-08-19T22:10:53.350Z,22.30
2018-08-19T22:13:21.805Z,22.20
2018-08-19T22:15:50.177Z,22.20
2018-08-19T22:18:26.289Z,22.10
2018-08-19T22:21:08.293Z,22.00
2018-08-19T22:23:42.180Z,22.10
2018-08-19T22:26:11.460Z,22.10
2018-08-19T22:28:40.150Z,22.10
2018-08-19T22:31:20.515Z,22.10
2018-08-19T22:33:53.756Z,22.10
2018-08-19T22:36:22.230Z,22.20
2018-08-19T22:38:51.499Z,22.20
2018-08-19T22:41:23.348Z,22.30
2018-08-19T22:43:52.943Z,22.30
2018-08-19T22:46:21.513Z,22.40
2018-08-19T22:48:52.271Z,22.40
2018-08-19T22:51:21.627Z,22.40
2018-08-19T22:53:56.533Z,22.40
2018-08-19T22:56:24.935Z,22.30
2018-08-19T22:58:53.373Z,22.20
2018-08-19T23:01:23.041Z,22.10
2018-08-19T23:03:58.348Z,22.00
2018-08-19T23:06:27.898Z,21.90
2018-08-19T23:08:56.320Z,21.90
2018-08-19T23:11:32.431Z,21.80
2018-08-19T23:14:12.047Z,21.70
2018-08-19T23:16:40.546Z,21.60
2018-08-19T23:19:08.939Z,21.60
2018-08-19T23:21:37.368Z,21.50
2018-08-19T23:24:06.027Z,21.50
2018-08-19T23:26:34.484Z,21.50
2018-08-19T23:29:03.631Z,21.40
2018-08-19T23:31:32.043Z,21.30
2018-08-19T23:34:04.830Z,21.30
2018-08-19T23:36:33.180Z,21.20
2018-08-19T23:39:02.320Z,21.10
2018-08-19T23:41:31.549Z,21.10
2018-08-19T23:44:00.052Z,21.10
2018-08-19T23:46:28.461Z,21.10
2018-08-19T23:48:58.616Z,21.20
2018-08-19T23:51:30.778Z,21.20
2018-08-19T23:54:00.492Z,21.20
2018-08-19T23:56:30.357Z,21.20
2018-08-19T23:58:59.359Z,21.20
